Time;durP1;ratioP1;P1;durP2;ratioP2;P2;SDS_P1;SDS_P2;PMS_P1;PMS_P2;Temp;Humidity;BMP_temperature;BMP_pressure;BME280_temperature;BME280_humidity;BME280_pressure;Samples;Min_cycle;Max_cycle;Signal;HPM_P1;HPM_P2
2021/12/16 03:25:39;;;;;;;17.77;10.23;;;4.50;99.90;;;;;;4783677;29;20070;-86
2021/12/16 03:36:26;;;;;;;20.77;11.23;;;4.30;99.90;;;;;;4770505;30;20059;-86
2021/12/16 03:38:56;;;;;;;20.95;9.75;;;4.40;99.90;;;;;;4772459;30;20059;-86
2021/12/16 03:41:26;;;;;;;14.45;9.18;;;4.50;99.90;;;;;;4772663;30;20052;-86
2021/12/16 03:43:57;;;;;;;19.67;9.98;;;4.60;99.90;;;;;;4772935;30;20063;-86
2021/12/16 03:46:27;;;;;;;18.60;10.00;;;4.60;99.90;;;;;;4772919;30;20056;-87
2021/12/16 03:49:00;;;;;;;15.80;9.48;;;4.50;99.90;;;;;;4772698;30;20071;-86
2021/12/16 03:51:30;;;;;;;24.58;11.23;;;4.50;99.90;;;;;;4772713;30;20051;-86
2021/12/16 03:54:03;;;;;;;23.33;11.68;;;4.30;99.90;;;;;;4772577;30;20110;-86
2021/12/16 03:56:32;;;;;;;21.40;11.05;;;4.30;99.90;;;;;;4777118;30;20047;-86
2021/12/16 03:58:59;;;;;;;20.27;10.65;;;4.20;99.90;;;;;;4789098;30;20169;-85
2021/12/16 04:01:30;;;;;;;20.23;10.82;;;4.30;99.90;;;;;;4772427;30;20051;-86
2021/12/16 04:04:00;;;;;;;22.27;11.85;;;4.40;99.90;;;;;;4771281;30;20128;-86
2021/12/16 04:06:28;;;;;;;19.67;10.40;;;4.30;99.90;;;;;;4771804;30;20079;-85
2021/12/16 04:08:57;;;;;;;16.55;9.73;;;4.30;99.90;;;;;;4771616;30;20056;-86
2021/12/16 04:11:28;;;;;;;23.13;10.00;;;4.30;99.90;;;;;;4772135;30;20055;-86
2021/12/16 04:13:59;;;;;;;21.55;9.73;;;4.20;99.90;;;;;;4771726;30;20121;-86
2021/12/16 04:16:30;;;;;;;15.73;10.13;;;4.20;99.90;;;;;;4772241;30;20048;-86
2021/12/16 04:19:00;;;;;;;11.75;7.95;;;4.30;99.90;;;;;;4772345;30;20129;-86
2021/12/16 04:21:28;;;;;;;16.20;9.48;;;4.40;99.90;;;;;;4772097;30;20052;-86
2021/12/16 04:23:57;;;;;;;15.23;8.30;;;4.40;99.90;;;;;;4764705;30;20068;-86
2021/12/16 04:26:28;;;;;;;17.58;10.50;;;4.40;99.90;;;;;;4780812;30;20059;-86
2021/12/16 04:28:57;;;;;;;14.27;9.18;;;4.50;99.90;;;;;;4789448;30;20055;-86
2021/12/16 04:31:24;;;;;;;14.90;9.13;;;4.50;99.90;;;;;;4789269;30;20079;-85
2021/12/16 04:33:52;;;;;;;15.48;9.35;;;4.50;99.90;;;;;;4789307;30;20503;-86
2021/12/16 04:36:20;;;;;;;14.82;9.38;;;4.60;99.90;;;;;;4789732;30;20116;-84
2021/12/16 04:38:48;;;;;;;19.00;11.98;;;4.60;99.90;;;;;;4789246;30;20055;-85
2021/12/16 04:41:16;;;;;;;16.13;9.80;;;4.60;99.90;;;;;;4789012;30;20059;-85
2021/12/16 04:43:47;;;;;;;18.33;9.18;;;4.70;99.90;;;;;;4789483;30;20056;-85
2021/12/16 04:46:24;;;;;;;14.93;9.15;;;4.70;99.90;;;;;;4789542;30;20055;-86
2021/12/16 04:48:54;;;;;;;17.90;10.35;;;4.80;99.90;;;;;;4789406;30;20128;-85
2021/12/16 04:51:23;;;;;;;17.50;8.30;;;5.00;99.90;;;;;;4788962;30;20110;-85
2021/12/16 04:53:51;;;;;;;16.90;8.60;;;5.20;99.90;;;;;;4788833;30;20110;-85
2021/12/16 04:56:22;;;;;;;14.00;7.68;;;5.00;99.90;;;;;;4789301;30;20047;-85
2021/12/16 04:58:51;;;;;;;15.48;8.45;;;4.90;99.90;;;;;;4788815;30;20465;-86
2021/12/16 05:01:20;;;;;;;19.55;9.20;;;4.80;99.90;;;;;;4788491;30;20051;-85
2021/12/16 05:03:47;;;;;;;18.02;10.45;;;4.60;99.90;;;;;;4788872;30;20078;-85
2021/12/16 05:06:14;;;;;;;15.80;9.85;;;4.40;99.90;;;;;;4788755;30;20055;-85
2021/12/16 05:08:42;;;;;;;23.33;10.60;;;4.30;99.90;;;;;;4788665;30;20052;-85
2021/12/16 05:11:14;;;;;;;19.75;10.88;;;4.20;99.90;;;;;;4788577;30;20082;-85
2021/12/16 05:13:44;;;;;;;22.23;10.55;;;4.20;99.90;;;;;;4788621;30;20056;-85
2021/12/16 05:16:11;;;;;;;21.88;10.70;;;4.20;99.90;;;;;;4788560;30;20051;-86
2021/12/16 05:18:40;;;;;;;18.20;10.88;;;4.20;99.90;;;;;;4788504;30;20415;-85
2021/12/16 05:21:14;;;;;;;17.88;9.90;;;4.20;99.90;;;;;;4788503;30;20480;-85
2021/12/16 05:26:25;;;;;;;17.33;10.10;;;4.30;99.90;;;;;;4788401;30;20080;-85
2021/12/16 05:28:57;;;;;;;17.13;9.48;;;4.40;99.90;;;;;;4788094;30;20055;-85
2021/12/16 05:31:26;;;;;;;18.27;9.93;;;4.30;99.90;;;;;;4772284;30;20517;-85
2021/12/16 05:33:57;;;;;;;25.05;11.45;;;4.30;99.90;;;;;;4788048;30;20055;-85
2021/12/16 05:36:24;;;;;;;21.30;10.55;;;4.30;99.90;;;;;;4788232;29;20113;-85
2021/12/16 05:38:51;;;;;;;26.63;11.50;;;4.40;99.90;;;;;;4788297;30;20112;-85
2021/12/16 05:41:20;;;;;;;22.23;11.20;;;4.40;99.90;;;;;;4788295;30;20058;-85
2021/12/16 05:43:48;;;;;;;21.17;11.15;;;4.50;99.90;;;;;;4786808;30;20055;-86
2021/12/16 05:46:18;;;;;;;29.65;11.80;;;4.50;99.90;;;;;;4787830;30;20074;-85
2021/12/16 05:48:47;;;;;;;23.60;13.13;;;4.50;99.90;;;;;;4787956;30;20059;-86
2021/12/16 05:51:18;;;;;;;26.77;12.80;;;4.50;99.90;;;;;;4788121;30;20090;-86
2021/12/16 05:53:47;;;;;;;21.90;12.85;;;4.50;99.90;;;;;;4787445;30;20105;-85
2021/12/16 05:56:14;;;;;;;27.35;12.68;;;4.60;99.90;;;;;;4787724;30;20094;-86
2021/12/16 05:58:44;;;;;;;17.80;11.40;;;4.70;99.90;;;;;;4787886;30;20059;-86
2021/12/16 06:01:14;;;;;;;22.75;12.07;;;4.80;99.90;;;;;;4787889;30;20051;-85
2021/12/16 06:03:43;;;;;;;23.08;12.40;;;4.90;99.90;;;;;;4795460;29;20047;-86
2021/12/16 06:06:11;;;;;;;18.73;11.13;;;4.70;99.90;;;;;;4788019;30;20048;-85
2021/12/16 06:08:40;;;;;;;22.60;12.93;;;4.90;99.90;;;;;;4787890;30;20055;-85
2021/12/16 06:11:20;;;;;;;22.15;12.82;;;4.90;99.90;;;;;;4788030;30;20299;-85
2021/12/16 06:14:04;;;;;;;23.23;13.63;;;4.90;99.90;;;;;;4773548;30;20086;-86
2021/12/16 06:27:34;;;;;;;21.05;11.40;;;5.30;99.90;;;;;;4796541;29;20078;-86
2021/12/16 06:30:02;;;;;;;19.75;10.65;;;5.50;99.90;;;;;;4789687;30;20503;-86
2021/12/16 06:32:29;;;;;;;21.17;10.48;;;5.50;99.90;;;;;;4788207;30;20440;-85
2021/12/16 06:34:57;;;;;;;21.73;12.07;;;5.60;99.90;;;;;;4788025;30;20079;-85
2021/12/16 06:37:24;;;;;;;19.33;10.05;;;5.60;99.90;;;;;;4788240;30;20112;-85
2021/12/16 06:39:53;;;;;;;23.55;11.50;;;5.50;99.90;;;;;;4788102;30;20055;-85
2021/12/16 06:42:22;;;;;;;19.27;12.38;;;5.60;99.90;;;;;;4788140;30;20048;-85
2021/12/16 06:44:53;;;;;;;19.90;11.02;;;5.50;99.90;;;;;;4787930;30;20086;-85
2021/12/16 06:47:25;;;;;;;19.60;10.65;;;5.50;99.90;;;;;;4790188;29;20047;-85
2021/12/16 06:49:54;;;;;;;20.85;11.60;;;5.50;99.90;;;;;;4791741;30;20059;-85
2021/12/16 06:52:28;;;;;;;28.58;14.88;;;5.50;99.90;;;;;;4791478;29;20085;-85
2021/12/16 06:55:10;;;;;;;24.15;11.55;;;5.50;99.90;;;;;;4791540;30;20082;-85
2021/12/16 06:57:43;;;;;;;22.13;12.40;;;5.60;99.90;;;;;;4791144;30;20149;-86
2021/12/16 07:00:17;;;;;;;22.23;12.18;;;5.60;99.90;;;;;;4791512;30;20058;-86
2021/12/16 07:02:58;;;;;;;24.73;14.02;;;5.60;99.90;;;;;;4791017;30;20063;-86
2021/12/16 07:05:28;;;;;;;27.08;12.80;;;5.50;99.90;;;;;;4791012;30;20427;-86
2021/12/16 07:07:56;;;;;;;21.85;13.45;;;5.60;99.90;;;;;;4791360;30;20059;-86
2021/12/16 07:10:25;;;;;;;20.98;12.05;;;5.60;99.90;;;;;;4791129;30;20165;-86
2021/12/16 07:12:56;;;;;;;22.10;11.18;;;5.70;99.90;;;;;;4790548;30;20051;-85
2021/12/16 07:15:26;;;;;;;20.90;11.88;;;5.80;99.90;;;;;;4791168;30;20059;-86
2021/12/16 07:17:54;;;;;;;21.33;11.85;;;5.90;99.90;;;;;;4790667;30;20496;-86
2021/12/16 07:20:25;;;;;;;24.27;12.70;;;5.90;99.90;;;;;;4791207;30;20055;-86
2021/12/16 07:22:52;;;;;;;24.65;12.85;;;5.80;99.90;;;;;;4790760;30;20104;-86
2021/12/16 07:25:20;;;;;;;22.17;12.30;;;5.80;99.90;;;;;;4791398;29;20055;-86
2021/12/16 07:27:50;;;;;;;24.52;13.60;;;5.80;99.90;;;;;;4791183;30;20055;-86
2021/12/16 07:30:22;;;;;;;28.90;14.68;;;5.90;99.90;;;;;;4791029;30;20056;-86
2021/12/16 07:32:50;;;;;;;28.83;15.20;;;5.90;99.90;;;;;;4790726;30;20111;-85
2021/12/16 07:35:19;;;;;;;30.80;13.95;;;4.70;99.90;;;;;;4790029;30;20564;-86
2021/12/16 07:37:47;;;;;;;25.25;14.15;;;5.80;99.90;;;;;;4790779;30;20118;-85
2021/12/16 07:40:17;;;;;;;21.65;11.82;;;6.00;99.90;;;;;;4791026;30;20491;-85
2021/12/16 07:42:48;;;;;;;24.63;14.60;;;6.30;99.90;;;;;;4790799;30;20062;-85
2021/12/16 07:45:19;;;;;;;21.23;13.05;;;6.30;99.90;;;;;;4790437;30;20083;-86
2021/12/16 07:47:48;;;;;;;24.83;13.55;;;6.40;99.90;;;;;;4790668;30;20047;-86
2021/12/16 07:50:16;;;;;;;;;;;6.20;99.90;;;;;;4791226;30;20063;-86
2021/12/16 07:52:43;;;;;;;22.20;13.45;;;6.20;99.90;;;;;;4789784;29;19925;-86
2021/12/16 07:55:12;;;;;;;26.27;13.93;;;6.10;99.90;;;;;;4805554;29;20065;-87
2021/12/16 07:57:40;;;;;;;;;;;6.10;99.90;;;;;;4808285;29;20647;-86
2021/12/16 08:00:11;;;;;;;22.45;13.82;;;6.20;99.90;;;;;;4786663;29;19955;-87
2021/12/16 08:02:40;;;;;;;23.13;13.90;;;6.20;99.90;;;;;;4790286;30;20062;-87
2021/12/16 08:05:08;;;;;;;29.38;15.23;;;6.10;99.90;;;;;;4791017;30;20134;-87
2021/12/16 08:07:37;;;;;;;40.03;16.38;;;6.10;99.90;;;;;;4790049;30;20056;-87
2021/12/16 08:10:05;;;;;;;28.02;16.88;;;6.10;99.90;;;;;;4790515;30;20059;-87
2021/12/16 08:12:35;;;;;;;24.65;15.90;;;6.10;99.90;;;;;;4789534;30;20416;-87
2021/12/16 08:15:02;;;;;;;33.00;17.05;;;6.10;99.90;;;;;;4791740;30;20511;-85
2021/12/16 08:17:31;;;;;;;30.13;18.35;;;6.20;99.90;;;;;;4790994;30;20496;-87
2021/12/16 08:20:00;;;;;;;27.92;16.85;;;6.30;99.90;;;;;;4789385;30;20086;-87
2021/12/16 08:22:27;;;;;;;24.27;15.52;;;6.30;99.90;;;;;;4791418;30;20051;-87
2021/12/16 08:24:54;;;;;;;33.63;15.90;;;6.30;99.90;;;;;;4791958;30;20055;-87
2021/12/16 08:27:21;;;;;;;25.35;15.77;;;6.40;99.90;;;;;;4790539;29;20055;-87
2021/12/16 08:29:48;;;;;;;34.85;18.23;;;6.50;99.90;;;;;;4791489;30;20062;-86
2021/12/16 08:32:15;;;;;;;22.25;14.75;;;6.50;99.90;;;;;;4791877;30;20423;-87
2021/12/16 08:34:45;;;;;;;28.23;16.05;;;6.60;99.90;;;;;;4791743;30;20063;-87
2021/12/16 08:37:15;;;;;;;27.45;16.13;;;6.60;99.90;;;;;;4791410;30;20515;-87
2021/12/16 08:39:44;;;;;;;26.55;16.15;;;6.70;99.90;;;;;;4790063;30;20056;-86
2021/12/16 08:42:11;;;;;;;;;;;6.80;99.90;;;;;;4789696;30;20047;-85
2021/12/16 08:44:40;;;;;;;21.48;13.27;;;6.80;99.90;;;;;;4789586;30;20334;-86
2021/12/16 08:47:10;;;;;;;29.27;13.88;;;7.00;99.90;;;;;;4790520;30;20112;-85
2021/12/16 08:49:39;;;;;;;29.20;13.27;;;6.90;99.90;;;;;;4792503;29;20108;-85
2021/12/16 08:52:09;;;;;;;27.08;14.73;;;6.90;99.90;;;;;;4789841;30;20108;-84
2021/12/16 08:54:39;;;;;;;26.42;15.82;;;7.10;99.90;;;;;;4779971;29;20059;-84
2021/12/16 08:57:07;;;;;;;25.70;15.80;;;7.40;99.90;;;;;;4774268;29;20086;-88
2021/12/16 08:59:34;;;;;;;28.13;14.48;;;7.90;99.90;;;;;;4735306;29;20094;-85
2021/12/16 09:02:03;;;;;;;27.98;15.13;;;7.90;99.90;;;;;;4704730;29;20071;-84
2021/12/16 09:04:30;;;;;;;29.47;14.97;;;8.00;99.90;;;;;;4728802;29;20636;-84
2021/12/16 09:07:03;;;;;;;31.90;13.45;;;8.00;99.90;;;;;;4784954;30;20140;-85
2021/12/16 09:09:33;;;;;;;30.17;15.48;;;8.00;99.90;;;;;;4783869;29;20047;-84
2021/12/16 09:12:09;;;;;;;30.40;16.15;;;8.00;99.90;;;;;;4787343;29;20058;-84
2021/12/16 09:14:38;;;;;;;34.63;15.75;;;7.90;99.90;;;;;;4780596;29;20090;-86
2021/12/16 09:17:10;;;;;;;;;;;7.80;99.90;;;;;;4711391;29;20911;-86
2021/12/16 09:19:38;;;;;;;27.40;14.75;;;6.90;99.90;;;;;;4714698;30;19921;-84
2021/12/16 09:22:06;;;;;;;26.08;14.55;;;7.90;99.90;;;;;;4739181;29;20507;-85
2021/12/16 09:24:34;;;;;;;26.75;15.57;;;7.70;99.90;;;;;;4751756;29;20079;-87
2021/12/16 09:27:03;;;;;;;25.27;15.52;;;8.30;99.90;;;;;;4785121;29;20150;-84
2021/12/16 09:29:30;;;;;;;38.13;17.00;;;8.50;99.90;;;;;;4784267;29;20133;-83
2021/12/16 09:31:58;;;;;;;23.10;13.70;;;8.50;99.90;;;;;;4785820;29;20047;-85
2021/12/16 09:34:26;;;;;;;30.02;14.90;;;8.80;99.90;;;;;;4785571;29;20406;-85
2021/12/16 09:36:53;;;;;;;34.33;17.95;;;9.20;99.90;;;;;;4784459;29;20562;-84
2021/12/16 09:39:23;;;;;;;23.70;13.85;;;9.40;99.90;;;;;;4750790;29;20038;-84
2021/12/16 09:41:53;;;;;;;20.08;12.18;;;9.80;99.90;;;;;;4718575;29;20050;-85
2021/12/16 09:44:22;;;;;;;;;;;9.50;99.90;;;;;;4721365;30;20504;-85
2021/12/16 09:46:50;;;;;;;;;;;9.60;99.90;;;;;;4725154;29;19976;-85
2021/12/16 09:49:18;;;;;;;26.02;13.35;;;9.40;99.90;;;;;;4705394;29;19929;-84
2021/12/16 09:51:46;;;;;;;31.70;12.23;;;9.30;99.90;;;;;;4703694;29;20051;-85
2021/12/16 09:54:17;;;;;;;30.48;14.80;;;9.10;99.90;;;;;;4717019;29;20261;-84
2021/12/16 09:56:46;;;;;;;21.25;13.00;;;8.90;99.90;;;;;;4719836;29;20051;-86
2021/12/16 09:59:15;;;;;;;26.90;13.15;;;8.80;99.90;;;;;;4719093;29;20136;-86
2021/12/16 10:01:47;;;;;;;30.27;14.65;;;8.80;99.90;;;;;;4706580;30;20051;-84
2021/12/16 10:04:19;;;;;;;30.20;14.95;;;8.70;99.90;;;;;;4721532;30;21622;-85
2021/12/16 10:06:50;;;;;;;24.65;13.07;;;8.70;99.90;;;;;;4716692;30;20150;-85
2021/12/16 10:09:18;;;;;;;24.83;14.25;;;8.70;99.90;;;;;;4715413;30;20395;-84
2021/12/16 10:11:48;;;;;;;27.70;14.43;;;8.70;99.90;;;;;;4720053;29;20059;-83
2021/12/16 10:14:31;;;;;;;29.20;15.85;;;8.70;99.90;;;;;;4719594;29;20059;-84
2021/12/16 10:19:47;;;;;;;19.80;13.00;;;8.60;99.90;;;;;;4715177;30;20443;-85
2021/12/16 10:22:20;;;;;;;25.60;15.13;;;8.60;99.90;;;;;;4716872;29;20089;-84
2021/12/16 10:24:49;;;;;;;24.95;13.95;;;8.70;99.90;;;;;;4721410;30;21145;-85
2021/12/16 10:27:19;;;;;;;29.13;15.32;;;10.10;99.90;;;;;;4713773;30;20235;-85
2021/12/16 10:29:48;;;;;;;30.08;14.85;;;8.80;99.90;;;;;;4710030;30;20051;-86
2021/12/16 10:32:34;;;;;;;;;;;8.70;99.90;;;;;;4709392;30;21306;-84
2021/12/16 10:35:06;;;;;;;35.08;18.65;;;8.60;99.90;;;;;;4710755;30;19922;-85
2021/12/16 10:37:35;;;;;;;36.33;19.77;;;8.60;99.90;;;;;;4709762;30;20074;-86
2021/12/16 10:40:32;;;;;;;30.80;19.25;;;8.60;99.90;;;;;;4710976;29;20480;-84
2021/12/16 10:43:03;;;;;;;27.27;21.20;;;8.70;99.90;;;;;;4713427;30;21234;-84
2021/12/16 10:45:34;;;;;;;40.65;28.58;;;8.90;99.90;;;;;;4714004;29;20136;-86
2021/12/16 10:48:24;;;;;;;45.08;28.75;;;8.80;99.90;;;;;;4719601;30;20070;-86
2021/12/16 10:51:03;;;;;;;35.03;24.40;;;8.90;99.90;;;;;;4720091;30;20047;-86
2021/12/16 10:54:07;;;;;;;36.97;21.48;;;8.80;99.90;;;;;;4705690;30;21239;-85
2021/12/16 10:56:43;;;;;;;31.33;19.85;;;9.00;99.90;;;;;;4707342;29;20082;-86
2021/12/16 10:59:14;;;;;;;30.60;19.45;;;8.20;99.90;;;;;;4711883;30;20066;-87
2021/12/16 11:01:46;;;;;;;29.98;19.80;;;8.70;99.90;;;;;;4718012;30;20056;-84
2021/12/16 11:04:20;;;;;;;34.03;21.25;;;9.00;99.90;;;;;;4702752;30;20351;-86
2021/12/16 11:06:51;;;;;;;34.80;19.42;;;7.70;99.90;;;;;;4724871;30;21173;-86
2021/12/16 11:09:41;;;;;;;27.65;18.70;;;8.70;99.90;;;;;;4715915;30;20081;-85
2021/12/16 11:12:32;;;;;;;27.08;18.67;;;9.10;99.90;;;;;;4713359;30;20055;-85
2021/12/16 11:15:04;;;;;;;32.58;17.98;;;9.20;99.90;;;;;;4723552;29;21441;-85
2021/12/16 11:17:34;;;;;;;31.33;19.60;;;9.70;99.90;;;;;;4719727;30;20795;-85
2021/12/16 11:20:10;;;;;;;38.85;20.02;;;9.20;99.90;;;;;;4720281;30;20055;-85
2021/12/16 11:22:39;;;;;;;28.58;19.10;;;8.10;99.90;;;;;;4718937;30;20063;-84
2021/12/16 11:25:17;;;;;;;36.00;20.15;;;9.20;99.90;;;;;;4722466;30;20047;-86
2021/12/16 11:27:47;;;;;;;33.15;20.17;;;9.40;99.90;;;;;;4721624;30;20059;-85
2021/12/16 11:30:38;;;;;;;33.50;21.40;;;9.80;99.90;;;;;;4727750;30;20128;-85
2021/12/16 11:33:22;;;;;;;36.88;20.63;;;9.50;99.90;;;;;;4740444;29;20082;-85
2021/12/16 11:36:02;;;;;;;28.77;21.05;;;9.50;99.90;;;;;;4733956;30;20437;-86
2021/12/16 11:38:36;;;;;;;32.67;20.25;;;9.60;99.90;;;;;;4783447;30;20051;-85
2021/12/16 11:41:20;;;;;;;36.42;19.77;;;9.70;99.90;;;;;;4795895;29;20078;-86
2021/12/16 11:44:01;;;;;;;35.92;21.38;;;9.60;99.90;;;;;;4781751;30;20079;-84
2021/12/16 11:46:31;;;;;;;32.70;20.15;;;9.50;99.90;;;;;;4783837;29;20051;-84
2021/12/16 11:49:06;;;;;;;35.92;16.80;;;9.60;99.90;;;;;;4774018;29;20075;-85
2021/12/16 11:51:39;;;;;;;30.73;19.08;;;9.80;99.90;;;;;;4698899;30;20065;-84
2021/12/16 11:54:16;;;;;;;33.33;20.45;;;8.50;99.90;;;;;;4698701;29;20320;-85
2021/12/16 11:56:47;;;;;;;30.67;18.98;;;9.80;99.90;;;;;;4697331;29;20091;-85
2021/12/16 11:59:25;;;;;;;31.95;17.33;;;9.90;99.90;;;;;;4725366;30;20086;-84
2021/12/16 12:01:53;;;;;;;30.10;19.52;;;9.80;99.90;;;;;;4730394;30;20063;-85
2021/12/16 12:04:26;;;;;;;29.48;17.23;;;10.00;99.90;;;;;;4715418;29;20060;-85
2021/12/16 12:06:58;;;;;;;27.83;19.02;;;9.90;99.90;;;;;;4701984;30;20067;-84
2021/12/16 12:09:35;;;;;;;29.17;20.42;;;9.40;99.90;;;;;;4698757;29;20059;-85
2021/12/16 12:12:02;;;;;;;27.92;18.55;;;10.10;99.90;;;;;;4700935;29;21009;-85
2021/12/16 12:14:34;;;;;;;32.40;21.52;;;10.60;99.90;;;;;;4703102;29;20099;-87
2021/12/16 12:17:07;;;;;;;22.45;15.45;;;10.40;99.90;;;;;;4708528;29;20054;-86
2021/12/16 12:19:43;;;;;;;31.60;20.15;;;10.70;99.90;;;;;;4720459;30;20055;-84
2021/12/16 12:22:12;;;;;;;28.77;19.23;;;10.70;99.90;;;;;;4709893;29;20900;-85
2021/12/16 12:24:44;;;;;;;26.90;19.17;;;10.60;99.90;;;;;;4700187;29;20062;-86
2021/12/16 12:27:14;;;;;;;32.10;19.25;;;11.40;99.90;;;;;;4707078;29;20155;-84
2021/12/16 12:29:44;;;;;;;32.17;19.77;;;11.00;99.90;;;;;;4787445;30;20055;-86
2021/12/16 12:32:21;;;;;;;31.33;21.20;;;10.40;99.90;;;;;;4786722;30;20051;-87
2021/12/16 12:34:51;;;;;;;34.90;19.48;;;10.30;99.90;;;;;;4790623;29;20130;-87
2021/12/16 12:37:26;;;;;;;34.97;21.10;;;10.20;99.90;;;;;;4788951;30;20055;-86
2021/12/16 12:39:56;;;;;;;32.35;20.92;;;10.10;99.90;;;;;;4786125;30;20055;-85
2021/12/16 12:42:49;;;;;;;34.97;21.35;;;10.20;99.90;;;;;;4785938;30;20063;-87
2021/12/16 12:45:21;;;;;;;33.88;20.80;;;11.70;99.90;;;;;;4780153;29;20075;-86
2021/12/16 12:47:51;;;;;;;31.40;19.55;;;10.20;99.90;;;;;;4787464;29;20047;-86
2021/12/16 12:50:21;;;;;;;33.58;21.27;;;10.30;99.90;;;;;;4784801;30;20040;-87
2021/12/16 12:52:53;;;;;;;32.63;20.88;;;10.30;99.90;;;;;;4786005;30;20058;-87
2021/12/16 12:55:29;;;;;;;33.95;21.35;;;10.50;99.90;;;;;;4788149;30;20055;-86
2021/12/16 12:58:05;;;;;;;31.83;20.52;;;10.50;99.90;;;;;;4785784;29;20554;-87
2021/12/16 13:00:37;;;;;;;31.38;21.45;;;10.50;99.90;;;;;;4789424;30;20126;-85
2021/12/16 13:03:09;;;;;;;31.05;21.40;;;10.50;99.90;;;;;;4787033;30;20055;-87
2021/12/16 13:05:40;;;;;;;30.45;20.45;;;11.00;99.90;;;;;;4787068;30;20438;-88
2021/12/16 13:08:12;;;;;;;28.02;19.98;;;10.90;99.90;;;;;;4785889;30;20100;-85
2021/12/16 13:10:45;;;;;;;30.55;20.13;;;10.70;99.90;;;;;;4787133;29;20051;-87
2021/12/16 13:13:31;;;;;;;34.03;18.50;;;10.00;99.90;;;;;;4748471;30;20138;-88
2021/12/16 13:24:51;;;;;;;30.00;17.98;;;11.30;99.90;;;;;;4786077;30;20103;-88
2021/12/16 13:27:32;;;;;;;25.95;17.98;;;11.60;99.90;;;;;;4723387;29;20065;-86
2021/12/16 13:30:17;;;;;;;22.65;17.55;;;11.50;99.90;;;;;;4725818;30;20077;-87
2021/12/16 13:33:15;;;;;;;24.02;17.35;;;11.40;99.90;;;;;;4727490;29;20059;-85
2021/12/16 13:35:48;;;;;;;34.53;18.73;;;11.20;99.90;;;;;;4731448;29;20138;-88
2021/12/16 13:38:17;;;;;;;31.10;18.05;;;11.50;99.90;;;;;;4729553;30;20510;-87
2021/12/16 13:40:46;;;;;;;33.88;18.20;;;11.60;99.90;;;;;;4718847;29;20535;-86
2021/12/16 13:43:23;;;;;;;26.15;17.25;;;11.40;99.90;;;;;;4708935;29;20051;-85
2021/12/16 13:46:18;;;;;;;30.85;18.00;;;12.10;99.90;;;;;;4710888;29;20486;-86
2021/12/16 13:48:57;;;;;;;24.42;18.10;;;11.60;99.90;;;;;;4711705;30;20062;-85
2021/12/16 14:03:16;;;;;;;28.10;17.67;;;10.90;99.90;;;;;;4705864;30;20078;-87
2021/12/16 14:05:59;;;;;;;34.13;17.67;;;10.80;99.90;;;;;;4730584;29;20062;-86
2021/12/16 14:08:39;;;;;;;25.50;16.88;;;10.90;99.90;;;;;;4730180;29;20035;-87
2021/12/16 14:11:52;;;;;;;26.45;16.88;;;11.20;99.90;;;;;;4717994;30;20116;-86
2021/12/16 14:14:44;;;;;;;33.47;18.37;;;11.00;99.90;;;;;;4719289;29;21208;-87
2021/12/16 14:23:12;;;;;;;30.20;19.20;;;10.90;99.90;;;;;;4726593;30;20116;-87
2021/12/16 14:25:54;;;;;;;33.28;18.63;;;10.70;99.90;;;;;;4721403;29;20547;-87
2021/12/16 14:31:30;;;;;;;27.70;18.35;;;10.70;99.90;;;;;;4724701;29;20086;-87
2021/12/16 14:37:12;;;;;;;31.52;19.20;;;10.60;99.90;;;;;;4783547;30;20055;-87
2021/12/16 14:39:59;;;;;;;32.35;19.70;;;10.70;99.90;;;;;;4782891;29;20485;-86
2021/12/16 14:42:47;;;;;;;29.63;17.65;;;10.70;99.90;;;;;;4782744;29;20489;-87
2021/12/16 14:45:29;;;;;;;34.90;18.33;;;10.70;99.90;;;;;;4729463;29;20050;-87
2021/12/16 14:48:21;;;;;;;31.13;18.55;;;10.80;99.90;;;;;;4709538;29;20043;-86
2021/12/16 14:50:53;;;;;;;29.05;17.70;;;10.70;99.90;;;;;;4709533;29;20051;-86
2021/12/16 14:53:25;;;;;;;27.65;17.38;;;10.70;99.90;;;;;;4708930;29;20214;-87
2021/12/16 14:55:56;;;;;;;29.98;18.70;;;9.40;99.90;;;;;;4704196;30;20055;-88
2021/12/16 14:58:27;;;;;;;39.42;23.45;;;10.60;99.90;;;;;;4700136;29;20124;-85
2021/12/16 15:01:00;;;;;;;29.25;18.90;;;10.40;99.90;;;;;;4707422;29;20704;-87
2021/12/16 15:03:34;;;;;;;30.40;18.42;;;9.80;99.90;;;;;;4698223;29;21005;-85
2021/12/16 15:06:04;;;;;;;31.50;19.88;;;10.60;99.90;;;;;;4701369;29;21684;-84
2021/12/16 15:08:39;;;;;;;30.17;19.17;;;10.70;99.90;;;;;;4698272;29;20288;-84
2021/12/16 15:11:11;;;;;;;32.08;17.67;;;10.60;99.90;;;;;;4707521;29;21116;-85
2021/12/16 15:13:43;;;;;;;29.45;18.30;;;10.60;99.90;;;;;;4705246;29;20327;-85
2021/12/16 15:39:09;;;;;;;40.83;18.63;;;10.70;99.90;;;;;;4698452;30;20134;-84
2021/12/16 15:44:21;;;;;;;35.03;18.75;;;10.40;99.90;;;;;;4710466;30;20589;-85
2021/12/16 15:46:50;;;;;;;28.50;19.77;;;11.80;99.90;;;;;;4712785;30;20122;-85
2021/12/16 15:49:17;;;;;;;32.17;18.75;;;10.60;99.90;;;;;;4708120;30;20937;-85
2021/12/16 15:58:49;;;;;;;34.80;20.13;;;11.40;99.90;;;;;;4707317;29;21003;-85
2021/12/16 16:01:21;;;;;;;37.15;20.73;;;12.00;99.90;;;;;;4716664;29;20482;-86
2021/12/16 16:03:49;;;;;;;29.05;18.73;;;10.40;99.90;;;;;;4718489;30;20043;-86
2021/12/16 16:06:18;;;;;;;27.52;16.70;;;10.50;99.90;;;;;;4719557;30;20950;-86
2021/12/16 16:08:49;;;;;;;29.25;18.25;;;10.30;99.90;;;;;;4720773;29;21190;-86
2021/12/16 16:11:20;;;;;;;34.35;18.23;;;10.50;99.90;;;;;;4717036;29;20055;-85
2021/12/16 16:13:51;;;;;;;28.52;18.48;;;9.10;99.90;;;;;;4716108;29;20336;-85
2021/12/16 16:16:25;;;;;;;40.60;19.35;;;10.90;99.90;;;;;;4717227;29;20036;-86
2021/12/16 16:18:59;;;;;;;30.42;19.38;;;10.60;99.90;;;;;;4731503;29;20087;-86
2021/12/16 16:21:29;;;;;;;33.88;20.88;;;10.50;99.90;;;;;;4735106;29;20792;-87
2021/12/16 16:23:59;;;;;;;32.80;21.77;;;10.50;99.90;;;;;;4736214;29;20666;-84
2021/12/16 16:26:29;;;;;;;34.60;19.40;;;10.40;99.90;;;;;;4717078;29;21224;-85
2021/12/16 16:29:00;;;;;;;31.88;18.88;;;10.40;99.90;;;;;;4735727;30;20477;-84
2021/12/16 16:31:31;;;;;;;34.03;19.48;;;10.60;99.90;;;;;;4727674;29;20051;-85
2021/12/16 16:34:00;;;;;;;35.95;19.92;;;10.30;99.90;;;;;;4739169;30;20062;-85
2021/12/16 16:36:31;;;;;;;30.73;17.17;;;10.40;99.90;;;;;;4744678;30;20547;-84
2021/12/16 16:39:04;;;;;;;32.50;20.25;;;10.40;99.90;;;;;;4709052;29;20218;-84
2021/12/16 16:41:38;;;;;;;32.13;19.50;;;10.30;99.90;;;;;;4727736;29;20055;-84
2021/12/16 16:44:11;;;;;;;29.38;20.17;;;10.30;99.90;;;;;;4788912;30;20100;-84
2021/12/16 16:46:47;;;;;;;33.20;20.30;;;10.30;99.90;;;;;;4782341;30;20051;-85
2021/12/16 16:49:26;;;;;;;45.85;23.98;;;10.20;99.90;;;;;;4789630;30;20059;-85
2021/12/16 16:51:54;;;;;;;36.75;24.95;;;10.10;99.90;;;;;;4788903;30;20460;-84
2021/12/16 16:54:34;;;;;;;38.40;24.52;;;10.10;99.90;;;;;;4788743;30;20051;-85
2021/12/16 16:57:04;;;;;;;29.90;20.55;;;10.20;99.90;;;;;;4788977;30;20098;-85
2021/12/16 16:59:43;;;;;;;40.50;23.05;;;10.20;99.90;;;;;;4772289;30;20051;-84
2021/12/16 17:02:27;;;;;;;;;;;10.10;99.90;;;;;;4790153;30;20051;-84
2021/12/16 17:04:59;;;;;;;33.25;21.27;;;10.10;99.90;;;;;;4787516;30;19925;-84
2021/12/16 17:07:29;;;;;;;38.65;22.48;;;10.10;99.90;;;;;;4788125;30;20051;-84
2021/12/16 17:09:56;;;;;;;34.13;23.58;;;10.00;99.90;;;;;;4787025;30;20058;-84
2021/12/16 17:12:34;;;;;;;33.30;23.15;;;9.90;99.90;;;;;;4786954;30;20119;-85
2021/12/16 17:15:21;;;;;;;41.40;23.70;;;9.90;99.90;;;;;;4786705;30;20058;-85
2021/12/16 17:17:50;;;;;;;39.08;24.45;;;9.90;99.90;;;;;;4787032;30;20051;-84
2021/12/16 17:20:17;;;;;;;52.25;32.42;;;10.00;99.90;;;;;;4776166;30;20435;-83
2021/12/16 17:22:49;;;;;;;48.55;28.27;;;10.00;99.90;;;;;;4706296;30;20051;-84
2021/12/16 17:25:19;;;;;;;41.45;24.75;;;10.10;99.90;;;;;;4734598;29;20043;-83
2021/12/16 17:27:52;;;;;;;33.80;25.08;;;10.00;99.90;;;;;;4711576;30;20399;-85
2021/12/16 17:30:26;;;;;;;36.95;23.95;;;10.00;99.90;;;;;;4706216;29;20043;-84
2021/12/16 17:32:56;;;;;;;47.55;28.05;;;10.00;99.90;;;;;;4702771;30;20577;-84
2021/12/16 17:35:27;;;;;;;55.75;38.95;;;9.90;99.90;;;;;;4713637;30;20054;-86
2021/12/16 17:38:00;;;;;;;37.78;27.35;;;10.00;99.90;;;;;;4722775;30;20153;-85
2021/12/16 17:40:32;;;;;;;39.88;28.25;;;9.90;99.90;;;;;;4719530;30;20380;-86
2021/12/16 17:43:02;;;;;;;34.38;25.35;;;10.00;99.90;;;;;;4787525;30;20055;-85
2021/12/16 17:45:33;;;;;;;42.30;25.98;;;9.90;99.90;;;;;;4787810;30;20059;-85
2021/12/16 17:48:05;;;;;;;39.75;24.88;;;9.90;99.90;;;;;;4788231;30;20078;-84
2021/12/16 17:50:38;;;;;;;42.03;25.35;;;9.90;99.90;;;;;;4788903;30;20051;-85
2021/12/16 17:53:06;;;;;;;47.58;28.00;;;9.90;99.90;;;;;;4788258;30;20514;-86
2021/12/16 17:55:37;;;;;;;41.63;26.15;;;9.90;99.90;;;;;;4788085;30;20055;-85
2021/12/16 17:58:11;;;;;;;46.35;28.63;;;9.80;99.90;;;;;;4788334;30;20483;-85